sensor_id;sensor_type;location;lat;lon;timestamp;P1;durP1;ratioP1;P2;durP2;ratioP2
66794;SDS011;53698;52.738;4.752;2022-07-09T00:00:58;7.35;;;5.47;;
66794;SDS011;53698;52.738;4.752;2022-07-09T00:03:26;9.15;;;5.63;;
66794;SDS011;53698;52.738;4.752;2022-07-09T00:05:52;9.07;;;5.18;;
66794;SDS011;53698;52.738;4.752;2022-07-09T00:08:17;9.68;;;5.05;;
66794;SDS011;53698;52.738;4.752;2022-07-09T00:10:42;9.80;;;5.40;;
66794;SDS011;53698;52.738;4.752;2022-07-09T00:13:08;8.95;;;6.55;;
66794;SDS011;53698;52.738;4.752;2022-07-09T00:15:33;10.38;;;6.75;;
66794;SDS011;53698;52.738;4.752;2022-07-09T00:17:58;16.48;;;7.22;;
66794;SDS011;53698;52.738;4.752;2022-07-09T00:20:24;11.95;;;7.25;;
66794;SDS011;53698;52.738;4.752;2022-07-09T00:22:50;12.80;;;7.53;;
66794;SDS011;53698;52.738;4.752;2022-07-09T00:25:15;8.77;;;5.97;;
66794;SDS011;53698;52.738;4.752;2022-07-09T00:27:41;9.15;;;6.60;;
66794;SDS011;53698;52.738;4.752;2022-07-09T00:30:06;8.95;;;6.72;;
66794;SDS011;53698;52.738;4.752;2022-07-09T00:32:32;8.60;;;6.15;;
66794;SDS011;53698;52.738;4.752;2022-07-09T00:34:57;10.57;;;6.28;;
66794;SDS011;53698;52.738;4.752;2022-07-09T00:37:23;9.70;;;5.65;;
66794;SDS011;53698;52.738;4.752;2022-07-09T00:39:48;9.55;;;4.88;;
66794;SDS011;53698;52.738;4.752;2022-07-09T00:42:13;10.75;;;5.50;;
66794;SDS011;53698;52.738;4.752;2022-07-09T00:44:39;9.27;;;5.07;;
66794;SDS011;53698;52.738;4.752;2022-07-09T00:47:05;9.80;;;4.90;;
66794;SDS011;53698;52.738;4.752;2022-07-09T00:49:32;7.32;;;4.45;;
66794;SDS011;53698;52.738;4.752;2022-07-09T00:52:00;7.70;;;4.30;;
66794;SDS011;53698;52.738;4.752;2022-07-09T00:54:26;5.07;;;4.32;;
66794;SDS011;53698;52.738;4.752;2022-07-09T00:56:52;8.40;;;4.15;;
66794;SDS011;53698;52.738;4.752;2022-07-09T00:59:18;11.35;;;6.30;;
66794;SDS011;53698;52.738;4.752;2022-07-09T01:01:45;8.15;;;5.97;;
66794;SDS011;53698;52.738;4.752;2022-07-09T01:04:11;8.57;;;5.80;;
66794;SDS011;53698;52.738;4.752;2022-07-09T01:06:36;7.75;;;5.65;;
66794;SDS011;53698;52.738;4.752;2022-07-09T01:09:02;5.75;;;4.97;;
66794;SDS011;53698;52.738;4.752;2022-07-09T01:11:28;7.57;;;4.00;;
66794;SDS011;53698;52.738;4.752;2022-07-09T01:13:54;9.00;;;4.65;;
66794;SDS011;53698;52.738;4.752;2022-07-09T01:16:20;10.02;;;3.90;;
66794;SDS011;53698;52.738;4.752;2022-07-09T01:18:46;6.60;;;3.45;;
66794;SDS011;53698;52.738;4.752;2022-07-09T01:21:12;7.57;;;3.45;;
66794;SDS011;53698;52.738;4.752;2022-07-09T01:23:38;6.55;;;3.83;;
66794;SDS011;53698;52.738;4.752;2022-07-09T01:26:03;4.75;;;4.22;;
66794;SDS011;53698;52.738;4.752;2022-07-09T01:28:29;8.48;;;4.05;;
66794;SDS011;53698;52.738;4.752;2022-07-09T01:30:54;6.90;;;3.72;;
66794;SDS011;53698;52.738;4.752;2022-07-09T01:33:20;5.15;;;3.30;;
66794;SDS011;53698;52.738;4.752;2022-07-09T01:35:46;7.30;;;3.45;;
66794;SDS011;53698;52.738;4.752;2022-07-09T01:38:11;7.13;;;3.17;;
66794;SDS011;53698;52.738;4.752;2022-07-09T01:40:36;6.82;;;3.50;;
66794;SDS011;53698;52.738;4.752;2022-07-09T01:43:02;7.32;;;3.92;;
66794;SDS011;53698;52.738;4.752;2022-07-09T01:45:27;4.03;;;3.40;;
66794;SDS011;53698;52.738;4.752;2022-07-09T01:47:53;4.07;;;3.20;;
66794;SDS011;53698;52.738;4.752;2022-07-09T01:50:18;6.68;;;3.40;;
66794;SDS011;53698;52.738;4.752;2022-07-09T01:52:43;5.10;;;3.60;;
66794;SDS011;53698;52.738;4.752;2022-07-09T01:55:09;7.10;;;3.92;;
66794;SDS011;53698;52.738;4.752;2022-07-09T01:57:34;4.22;;;3.08;;
66794;SDS011;53698;52.738;4.752;2022-07-09T02:00:00;5.50;;;3.65;;
66794;SDS011;53698;52.738;4.752;2022-07-09T02:02:25;8.18;;;3.95;;
66794;SDS011;53698;52.738;4.752;2022-07-09T02:04:50;5.80;;;3.42;;
66794;SDS011;53698;52.738;4.752;2022-07-09T02:07:16;6.95;;;3.22;;
66794;SDS011;53698;52.738;4.752;2022-07-09T02:09:41;7.90;;;3.58;;
66794;SDS011;53698;52.738;4.752;2022-07-09T02:12:07;5.97;;;4.22;;
66794;SDS011;53698;52.738;4.752;2022-07-09T02:14:33;7.45;;;3.90;;
66794;SDS011;53698;52.738;4.752;2022-07-09T02:16:59;7.03;;;4.45;;
66794;SDS011;53698;52.738;4.752;2022-07-09T02:19:24;7.10;;;5.20;;
66794;SDS011;53698;52.738;4.752;2022-07-09T02:21:49;6.15;;;4.75;;
66794;SDS011;53698;52.738;4.752;2022-07-09T02:24:15;7.28;;;5.40;;
66794;SDS011;53698;52.738;4.752;2022-07-09T02:26:40;7.93;;;5.15;;
66794;SDS011;53698;52.738;4.752;2022-07-09T02:29:06;13.50;;;6.18;;
66794;SDS011;53698;52.738;4.752;2022-07-09T02:31:32;9.88;;;6.40;;
66794;SDS011;53698;52.738;4.752;2022-07-09T02:33:57;5.55;;;5.05;;
66794;SDS011;53698;52.738;4.752;2022-07-09T02:36:23;8.10;;;6.30;;
66794;SDS011;53698;52.738;4.752;2022-07-09T02:38:48;10.02;;;5.70;;
66794;SDS011;53698;52.738;4.752;2022-07-09T02:41:14;9.63;;;6.05;;
66794;SDS011;53698;52.738;4.752;2022-07-09T02:43:39;8.77;;;6.00;;
66794;SDS011;53698;52.738;4.752;2022-07-09T02:46:08;9.98;;;5.80;;
66794;SDS011;53698;52.738;4.752;2022-07-09T02:48:33;10.32;;;4.72;;
66794;SDS011;53698;52.738;4.752;2022-07-09T02:50:59;7.78;;;4.70;;
66794;SDS011;53698;52.738;4.752;2022-07-09T02:53:25;7.80;;;4.60;;
66794;SDS011;53698;52.738;4.752;2022-07-09T02:55:51;11.63;;;4.70;;
66794;SDS011;53698;52.738;4.752;2022-07-09T02:58:16;7.22;;;4.53;;
66794;SDS011;53698;52.738;4.752;2022-07-09T03:00:41;11.35;;;5.43;;
66794;SDS011;53698;52.738;4.752;2022-07-09T03:03:07;8.57;;;5.00;;
66794;SDS011;53698;52.738;4.752;2022-07-09T03:05:33;11.32;;;4.80;;
66794;SDS011;53698;52.738;4.752;2022-07-09T03:07:59;14.32;;;5.50;;
66794;SDS011;53698;52.738;4.752;2022-07-09T03:10:24;11.13;;;6.32;;
66794;SDS011;53698;52.738;4.752;2022-07-09T03:12:49;7.30;;;4.18;;
66794;SDS011;53698;52.738;4.752;2022-07-09T03:15:15;7.65;;;5.20;;
66794;SDS011;53698;52.738;4.752;2022-07-09T03:17:45;8.88;;;5.35;;
66794;SDS011;53698;52.738;4.752;2022-07-09T03:20:11;10.93;;;4.88;;
66794;SDS011;53698;52.738;4.752;2022-07-09T03:22:37;7.90;;;5.63;;
66794;SDS011;53698;52.738;4.752;2022-07-09T03:25:04;11.13;;;6.07;;
66794;SDS011;53698;52.738;4.752;2022-07-09T03:27:30;11.35;;;8.52;;
66794;SDS011;53698;52.738;4.752;2022-07-09T03:29:55;11.43;;;6.75;;
66794;SDS011;53698;52.738;4.752;2022-07-09T03:32:21;13.50;;;8.65;;
66794;SDS011;53698;52.738;4.752;2022-07-09T03:34:46;17.67;;;9.93;;
66794;SDS011;53698;52.738;4.752;2022-07-09T03:37:12;12.20;;;8.95;;
66794;SDS011;53698;52.738;4.752;2022-07-09T03:39:38;14.20;;;9.45;;
66794;SDS011;53698;52.738;4.752;2022-07-09T03:42:04;12.98;;;8.20;;
66794;SDS011;53698;52.738;4.752;2022-07-09T03:44:31;17.42;;;8.48;;
66794;SDS011;53698;52.738;4.752;2022-07-09T03:46:58;11.35;;;6.60;;
66794;SDS011;53698;52.738;4.752;2022-07-09T03:49:23;12.23;;;6.20;;
66794;SDS011;53698;52.738;4.752;2022-07-09T03:51:49;9.93;;;6.63;;
66794;SDS011;53698;52.738;4.752;2022-07-09T03:54:14;10.23;;;5.90;;
66794;SDS011;53698;52.738;4.752;2022-07-09T03:56:39;13.70;;;6.53;;
66794;SDS011;53698;52.738;4.752;2022-07-09T03:59:05;10.57;;;7.20;;
66794;SDS011;53698;52.738;4.752;2022-07-09T04:01:30;14.15;;;8.32;;
66794;SDS011;53698;52.738;4.752;2022-07-09T04:03:55;12.40;;;7.97;;
66794;SDS011;53698;52.738;4.752;2022-07-09T04:06:21;12.95;;;7.97;;
66794;SDS011;53698;52.738;4.752;2022-07-09T04:08:47;9.43;;;8.10;;
66794;SDS011;53698;52.738;4.752;2022-07-09T04:11:12;13.85;;;7.90;;
66794;SDS011;53698;52.738;4.752;2022-07-09T04:13:37;16.25;;;9.60;;
66794;SDS011;53698;52.738;4.752;2022-07-09T04:16:03;13.45;;;8.43;;
66794;SDS011;53698;52.738;4.752;2022-07-09T04:18:29;11.07;;;8.02;;
66794;SDS011;53698;52.738;4.752;2022-07-09T04:20:54;14.27;;;9.68;;
66794;SDS011;53698;52.738;4.752;2022-07-09T04:23:20;11.70;;;9.48;;
66794;SDS011;53698;52.738;4.752;2022-07-09T04:25:45;15.52;;;9.68;;
66794;SDS011;53698;52.738;4.752;2022-07-09T04:28:13;15.13;;;11.20;;
66794;SDS011;53698;52.738;4.752;2022-07-09T04:30:38;18.35;;;11.38;;
66794;SDS011;53698;52.738;4.752;2022-07-09T04:33:04;13.15;;;10.32;;
66794;SDS011;53698;52.738;4.752;2022-07-09T04:35:29;12.48;;;9.15;;
66794;SDS011;53698;52.738;4.752;2022-07-09T04:37:55;16.40;;;11.75;;
66794;SDS011;53698;52.738;4.752;2022-07-09T04:40:20;13.63;;;11.95;;
66794;SDS011;53698;52.738;4.752;2022-07-09T04:42:45;13.73;;;10.05;;
66794;SDS011;53698;52.738;4.752;2022-07-09T04:45:10;17.27;;;11.02;;
66794;SDS011;53698;52.738;4.752;2022-07-09T04:47:36;15.10;;;9.48;;
66794;SDS011;53698;52.738;4.752;2022-07-09T04:50:01;15.60;;;10.57;;
66794;SDS011;53698;52.738;4.752;2022-07-09T04:52:27;15.65;;;10.82;;
66794;SDS011;53698;52.738;4.752;2022-07-09T04:54:53;23.65;;;12.55;;
66794;SDS011;53698;52.738;4.752;2022-07-09T04:57:19;14.00;;;9.35;;
66794;SDS011;53698;52.738;4.752;2022-07-09T04:59:44;15.52;;;10.30;;
66794;SDS011;53698;52.738;4.752;2022-07-09T05:02:10;11.38;;;9.00;;
66794;SDS011;53698;52.738;4.752;2022-07-09T05:04:35;19.75;;;9.55;;
66794;SDS011;53698;52.738;4.752;2022-07-09T05:07:01;13.82;;;8.85;;
66794;SDS011;53698;52.738;4.752;2022-07-09T05:09:26;13.18;;;8.15;;
66794;SDS011;53698;52.738;4.752;2022-07-09T05:11:52;13.30;;;8.27;;
66794;SDS011;53698;52.738;4.752;2022-07-09T05:14:17;11.57;;;7.18;;
66794;SDS011;53698;52.738;4.752;2022-07-09T05:16:43;10.85;;;7.30;;
66794;SDS011;53698;52.738;4.752;2022-07-09T05:19:12;11.02;;;7.13;;
66794;SDS011;53698;52.738;4.752;2022-07-09T05:21:38;8.50;;;5.88;;
66794;SDS011;53698;52.738;4.752;2022-07-09T05:24:04;10.38;;;6.13;;
66794;SDS011;53698;52.738;4.752;2022-07-09T05:26:30;9.23;;;5.78;;
66794;SDS011;53698;52.738;4.752;2022-07-09T05:28:56;9.65;;;5.38;;
66794;SDS011;53698;52.738;4.752;2022-07-09T05:31:22;7.43;;;4.55;;
66794;SDS011;53698;52.738;4.752;2022-07-09T05:33:47;8.50;;;4.05;;
66794;SDS011;53698;52.738;4.752;2022-07-09T05:36:13;7.60;;;4.90;;
66794;SDS011;53698;52.738;4.752;2022-07-09T05:38:38;6.28;;;4.10;;
66794;SDS011;53698;52.738;4.752;2022-07-09T05:41:04;8.25;;;3.65;;
66794;SDS011;53698;52.738;4.752;2022-07-09T05:43:29;5.82;;;3.13;;
66794;SDS011;53698;52.738;4.752;2022-07-09T05:45:54;6.88;;;3.65;;
66794;SDS011;53698;52.738;4.752;2022-07-09T05:48:20;8.73;;;3.58;;
66794;SDS011;53698;52.738;4.752;2022-07-09T05:50:45;6.85;;;3.50;;
66794;SDS011;53698;52.738;4.752;2022-07-09T05:53:10;6.78;;;3.33;;
66794;SDS011;53698;52.738;4.752;2022-07-09T05:55:36;7.15;;;3.05;;
66794;SDS011;53698;52.738;4.752;2022-07-09T05:58:01;7.68;;;3.28;;
66794;SDS011;53698;52.738;4.752;2022-07-09T06:00:26;6.55;;;3.00;;
66794;SDS011;53698;52.738;4.752;2022-07-09T06:02:52;6.25;;;2.88;;
66794;SDS011;53698;52.738;4.752;2022-07-09T06:05:17;4.45;;;2.05;;
66794;SDS011;53698;52.738;4.752;2022-07-09T06:07:45;5.15;;;2.15;;
66794;SDS011;53698;52.738;4.752;2022-07-09T06:10:11;7.45;;;2.22;;
66794;SDS011;53698;52.738;4.752;2022-07-09T06:12:39;6.95;;;1.85;;
66794;SDS011;53698;52.738;4.752;2022-07-09T06:15:05;7.18;;;2.58;;
66794;SDS011;53698;52.738;4.752;2022-07-09T06:17:30;3.58;;;2.10;;
66794;SDS011;53698;52.738;4.752;2022-07-09T06:19:56;3.90;;;1.90;;
66794;SDS011;53698;52.738;4.752;2022-07-09T06:22:21;4.55;;;1.75;;
66794;SDS011;53698;52.738;4.752;2022-07-09T06:24:46;2.00;;;1.67;;
66794;SDS011;53698;52.738;4.752;2022-07-09T06:27:12;7.97;;;1.73;;
66794;SDS011;53698;52.738;4.752;2022-07-09T06:29:37;7.50;;;1.30;;
66794;SDS011;53698;52.738;4.752;2022-07-09T06:32:03;4.25;;;1.20;;
66794;SDS011;53698;52.738;4.752;2022-07-09T06:34:28;6.45;;;1.35;;
66794;SDS011;53698;52.738;4.752;2022-07-09T06:36:54;6.72;;;1.52;;
66794;SDS011;53698;52.738;4.752;2022-07-09T06:39:19;8.07;;;1.85;;
66794;SDS011;53698;52.738;4.752;2022-07-09T06:42:06;8.13;;;1.85;;
66794;SDS011;53698;52.738;4.752;2022-07-09T06:44:33;5.75;;;1.92;;
66794;SDS011;53698;52.738;4.752;2022-07-09T06:46:58;8.35;;;2.05;;
66794;SDS011;53698;52.738;4.752;2022-07-09T06:49:24;7.53;;;1.75;;
66794;SDS011;53698;52.738;4.752;2022-07-09T06:51:49;6.50;;;1.70;;
66794;SDS011;53698;52.738;4.752;2022-07-09T06:54:14;4.50;;;2.00;;
66794;SDS011;53698;52.738;4.752;2022-07-09T06:56:40;9.10;;;1.92;;
66794;SDS011;53698;52.738;4.752;2022-07-09T06:59:05;6.18;;;1.60;;
66794;SDS011;53698;52.738;4.752;2022-07-09T07:01:30;10.57;;;2.13;;
66794;SDS011;53698;52.738;4.752;2022-07-09T07:03:56;8.43;;;1.90;;
66794;SDS011;53698;52.738;4.752;2022-07-09T07:06:21;9.45;;;2.28;;
66794;SDS011;53698;52.738;4.752;2022-07-09T07:08:46;4.45;;;1.40;;
66794;SDS011;53698;52.738;4.752;2022-07-09T07:11:12;5.50;;;1.70;;
66794;SDS011;53698;52.738;4.752;2022-07-09T07:13:37;5.47;;;1.63;;
66794;SDS011;53698;52.738;4.752;2022-07-09T07:16:02;7.72;;;1.77;;
66794;SDS011;53698;52.738;4.752;2022-07-09T07:18:28;10.05;;;1.83;;
66794;SDS011;53698;52.738;4.752;2022-07-09T07:20:53;10.60;;;1.90;;
66794;SDS011;53698;52.738;4.752;2022-07-09T07:23:19;5.45;;;1.80;;
66794;SDS011;53698;52.738;4.752;2022-07-09T07:25:44;6.32;;;1.83;;
66794;SDS011;53698;52.738;4.752;2022-07-09T07:28:09;6.30;;;2.00;;
66794;SDS011;53698;52.738;4.752;2022-07-09T07:30:34;11.48;;;2.28;;
66794;SDS011;53698;52.738;4.752;2022-07-09T07:33:01;9.82;;;1.70;;
66794;SDS011;53698;52.738;4.752;2022-07-09T07:35:26;5.45;;;1.75;;
66794;SDS011;53698;52.738;4.752;2022-07-09T07:37:52;8.60;;;1.42;;
66794;SDS011;53698;52.738;4.752;2022-07-09T07:40:17;5.70;;;1.80;;
66794;SDS011;53698;52.738;4.752;2022-07-09T07:42:43;7.22;;;1.30;;
66794;SDS011;53698;52.738;4.752;2022-07-09T07:45:08;9.82;;;1.60;;
66794;SDS011;53698;52.738;4.752;2022-07-09T07:47:34;11.30;;;1.65;;
66794;SDS011;53698;52.738;4.752;2022-07-09T07:50:00;10.68;;;1.95;;
66794;SDS011;53698;52.738;4.752;2022-07-09T07:52:25;6.90;;;1.20;;
66794;SDS011;53698;52.738;4.752;2022-07-09T07:54:50;7.53;;;1.70;;
66794;SDS011;53698;52.738;4.752;2022-07-09T07:57:16;6.88;;;1.63;;
66794;SDS011;53698;52.738;4.752;2022-07-09T07:59:41;9.70;;;1.67;;
66794;SDS011;53698;52.738;4.752;2022-07-09T08:02:06;6.28;;;1.65;;
66794;SDS011;53698;52.738;4.752;2022-07-09T08:04:32;10.57;;;1.65;;
66794;SDS011;53698;52.738;4.752;2022-07-09T08:06:57;10.38;;;1.83;;
66794;SDS011;53698;52.738;4.752;2022-07-09T08:09:23;11.50;;;1.90;;
66794;SDS011;53698;52.738;4.752;2022-07-09T08:11:48;9.70;;;1.92;;
66794;SDS011;53698;52.738;4.752;2022-07-09T08:14:13;11.65;;;1.77;;
66794;SDS011;53698;52.738;4.752;2022-07-09T08:16:39;7.93;;;1.65;;
66794;SDS011;53698;52.738;4.752;2022-07-09T08:19:04;7.60;;;1.60;;
66794;SDS011;53698;52.738;4.752;2022-07-09T08:21:29;9.80;;;1.95;;
66794;SDS011;53698;52.738;4.752;2022-07-09T08:23:55;10.77;;;2.05;;
66794;SDS011;53698;52.738;4.752;2022-07-09T08:26:21;13.77;;;2.35;;
66794;SDS011;53698;52.738;4.752;2022-07-09T08:28:50;18.00;;;2.28;;
66794;SDS011;53698;52.738;4.752;2022-07-09T08:31:17;10.02;;;2.55;;
66794;SDS011;53698;52.738;4.752;2022-07-09T08:33:43;11.63;;;2.13;;
66794;SDS011;53698;52.738;4.752;2022-07-09T08:36:08;10.25;;;1.85;;
66794;SDS011;53698;52.738;4.752;2022-07-09T08:38:34;6.85;;;2.15;;
66794;SDS011;53698;52.738;4.752;2022-07-09T08:40:59;15.77;;;2.58;;
66794;SDS011;53698;52.738;4.752;2022-07-09T08:43:26;9.02;;;1.63;;
66794;SDS011;53698;52.738;4.752;2022-07-09T08:45:53;9.73;;;2.13;;
66794;SDS011;53698;52.738;4.752;2022-07-09T08:48:19;8.82;;;1.80;;
66794;SDS011;53698;52.738;4.752;2022-07-09T08:50:46;10.48;;;1.70;;
66794;SDS011;53698;52.738;4.752;2022-07-09T08:53:13;12.18;;;2.15;;
66794;SDS011;53698;52.738;4.752;2022-07-09T08:55:42;10.48;;;2.33;;
66794;SDS011;53698;52.738;4.752;2022-07-09T08:58:07;7.15;;;1.58;;
66794;SDS011;53698;52.738;4.752;2022-07-09T09:00:36;6.30;;;1.65;;
66794;SDS011;53698;52.738;4.752;2022-07-09T09:03:01;10.75;;;2.28;;
66794;SDS011;53698;52.738;4.752;2022-07-09T09:05:27;11.93;;;1.67;;
66794;SDS011;53698;52.738;4.752;2022-07-09T09:07:52;13.60;;;2.33;;
66794;SDS011;53698;52.738;4.752;2022-07-09T09:10:21;11.30;;;1.85;;
66794;SDS011;53698;52.738;4.752;2022-07-09T09:12:47;5.10;;;1.30;;
66794;SDS011;53698;52.738;4.752;2022-07-09T09:15:16;12.45;;;1.75;;
66794;SDS011;53698;52.738;4.752;2022-07-09T09:17:44;7.88;;;1.60;;
66794;SDS011;53698;52.738;4.752;2022-07-09T09:20:15;6.78;;;1.55;;
66794;SDS011;53698;52.738;4.752;2022-07-09T09:22:48;5.53;;;1.58;;
66794;SDS011;53698;52.738;4.752;2022-07-09T09:25:18;8.05;;;1.52;;
66794;SDS011;53698;52.738;4.752;2022-07-09T09:27:51;12.50;;;2.00;;
66794;SDS011;53698;52.738;4.752;2022-07-09T09:30:23;12.25;;;1.95;;
66794;SDS011;53698;52.738;4.752;2022-07-09T09:32:54;8.63;;;2.05;;
66794;SDS011;53698;52.738;4.752;2022-07-09T09:35:28;9.65;;;1.98;;
66794;SDS011;53698;52.738;4.752;2022-07-09T09:38:00;12.93;;;1.83;;
66794;SDS011;53698;52.738;4.752;2022-07-09T09:40:26;8.30;;;1.77;;
66794;SDS011;53698;52.738;4.752;2022-07-09T09:42:52;10.63;;;1.58;;
66794;SDS011;53698;52.738;4.752;2022-07-09T09:45:18;5.90;;;1.70;;
66794;SDS011;53698;52.738;4.752;2022-07-09T09:47:47;10.98;;;1.80;;
66794;SDS011;53698;52.738;4.752;2022-07-09T09:50:18;4.65;;;1.35;;
66794;SDS011;53698;52.738;4.752;2022-07-09T09:52:45;5.55;;;1.40;;
66794;SDS011;53698;52.738;4.752;2022-07-09T09:55:12;6.00;;;1.30;;
66794;SDS011;53698;52.738;4.752;2022-07-09T09:57:38;5.13;;;1.10;;
66794;SDS011;53698;52.738;4.752;2022-07-09T10:00:04;7.60;;;1.50;;
66794;SDS011;53698;52.738;4.752;2022-07-09T10:02:38;4.32;;;1.30;;
66794;SDS011;53698;52.738;4.752;2022-07-09T10:05:04;7.07;;;1.98;;
66794;SDS011;53698;52.738;4.752;2022-07-09T10:07:29;7.10;;;1.77;;
66794;SDS011;53698;52.738;4.752;2022-07-09T10:09:58;9.55;;;2.13;;
66794;SDS011;53698;52.738;4.752;2022-07-09T10:12:27;9.38;;;1.50;;
66794;SDS011;53698;52.738;4.752;2022-07-09T10:14:54;8.40;;;1.73;;
66794;SDS011;53698;52.738;4.752;2022-07-09T10:17:20;10.82;;;2.05;;
66794;SDS011;53698;52.738;4.752;2022-07-09T10:20:01;8.02;;;1.60;;
66794;SDS011;53698;52.738;4.752;2022-07-09T10:25:03;6.82;;;1.60;;
66794;SDS011;53698;52.738;4.752;2022-07-09T10:27:29;9.65;;;1.73;;
66794;SDS011;53698;52.738;4.752;2022-07-09T10:30:05;7.90;;;1.67;;
66794;SDS011;53698;52.738;4.752;2022-07-09T10:32:31;8.15;;;1.92;;
66794;SDS011;53698;52.738;4.752;2022-07-09T10:35:02;12.02;;;2.35;;
66794;SDS011;53698;52.738;4.752;2022-07-09T10:37:41;8.43;;;1.88;;
66794;SDS011;53698;52.738;4.752;2022-07-09T10:40:11;7.78;;;1.65;;
66794;SDS011;53698;52.738;4.752;2022-07-09T10:42:40;6.80;;;1.42;;
66794;SDS011;53698;52.738;4.752;2022-07-09T10:45:19;7.85;;;1.42;;
66794;SDS011;53698;52.738;4.752;2022-07-09T10:48:05;4.05;;;1.30;;
66794;SDS011;53698;52.738;4.752;2022-07-09T10:50:38;6.70;;;1.83;;
66794;SDS011;53698;52.738;4.752;2022-07-09T10:53:05;9.30;;;2.08;;
66794;SDS011;53698;52.738;4.752;2022-07-09T10:55:31;4.78;;;1.33;;
66794;SDS011;53698;52.738;4.752;2022-07-09T10:57:56;9.05;;;1.65;;
66794;SDS011;53698;52.738;4.752;2022-07-09T11:00:26;12.95;;;2.05;;
66794;SDS011;53698;52.738;4.752;2022-07-09T11:02:57;10.35;;;2.25;;
66794;SDS011;53698;52.738;4.752;2022-07-09T11:05:23;9.48;;;1.85;;
66794;SDS011;53698;52.738;4.752;2022-07-09T11:07:56;9.02;;;1.92;;
66794;SDS011;53698;52.738;4.752;2022-07-09T11:10:21;11.25;;;2.45;;
66794;SDS011;53698;52.738;4.752;2022-07-09T11:12:47;8.27;;;2.00;;
66794;SDS011;53698;52.738;4.752;2022-07-09T11:15:16;13.27;;;2.80;;
66794;SDS011;53698;52.738;4.752;2022-07-09T11:17:42;11.68;;;2.10;;
66794;SDS011;53698;52.738;4.752;2022-07-09T11:20:10;11.05;;;3.75;;
66794;SDS011;53698;52.738;4.752;2022-07-09T11:22:36;13.68;;;2.08;;
66794;SDS011;53698;52.738;4.752;2022-07-09T11:25:01;8.05;;;2.10;;
66794;SDS011;53698;52.738;4.752;2022-07-09T11:27:26;10.98;;;2.30;;
66794;SDS011;53698;52.738;4.752;2022-07-09T11:29:52;7.95;;;1.70;;
66794;SDS011;53698;52.738;4.752;2022-07-09T11:32:18;10.20;;;1.60;;
66794;SDS011;53698;52.738;4.752;2022-07-09T11:34:50;8.65;;;1.55;;
66794;SDS011;53698;52.738;4.752;2022-07-09T11:37:22;8.27;;;1.77;;
66794;SDS011;53698;52.738;4.752;2022-07-09T11:39:53;10.77;;;1.70;;
66794;SDS011;53698;52.738;4.752;2022-07-09T11:42:18;10.90;;;1.77;;
66794;SDS011;53698;52.738;4.752;2022-07-09T11:44:52;8.35;;;1.50;;
66794;SDS011;53698;52.738;4.752;2022-07-09T11:47:19;7.00;;;1.90;;
66794;SDS011;53698;52.738;4.752;2022-07-09T11:49:48;8.93;;;1.65;;
66794;SDS011;53698;52.738;4.752;2022-07-09T11:54:58;8.00;;;1.48;;
66794;SDS011;53698;52.738;4.752;2022-07-09T11:59:52;10.98;;;1.67;;
66794;SDS011;53698;52.738;4.752;2022-07-09T12:02:36;6.90;;;1.17;;
66794;SDS011;53698;52.738;4.752;2022-07-09T12:05:03;8.20;;;1.40;;
66794;SDS011;53698;52.738;4.752;2022-07-09T12:07:36;7.70;;;1.55;;
66794;SDS011;53698;52.738;4.752;2022-07-09T12:10:03;6.22;;;1.15;;
66794;SDS011;53698;52.738;4.752;2022-07-09T12:12:30;8.05;;;1.52;;
66794;SDS011;53698;52.738;4.752;2022-07-09T12:14:57;5.65;;;1.25;;
66794;SDS011;53698;52.738;4.752;2022-07-09T12:17:27;9.10;;;1.55;;
66794;SDS011;53698;52.738;4.752;2022-07-09T12:19:53;6.47;;;1.15;;
66794;SDS011;53698;52.738;4.752;2022-07-09T12:22:19;5.20;;;1.40;;
66794;SDS011;53698;52.738;4.752;2022-07-09T12:24:46;7.25;;;1.63;;
66794;SDS011;53698;52.738;4.752;2022-07-09T12:27:12;6.00;;;1.25;;
66794;SDS011;53698;52.738;4.752;2022-07-09T12:29:38;5.95;;;1.13;;
66794;SDS011;53698;52.738;4.752;2022-07-09T12:32:03;5.07;;;1.10;;
66794;SDS011;53698;52.738;4.752;2022-07-09T12:34:29;6.45;;;1.35;;
66794;SDS011;53698;52.738;4.752;2022-07-09T12:36:54;5.90;;;1.70;;
66794;SDS011;53698;52.738;4.752;2022-07-09T12:39:20;7.47;;;1.30;;
66794;SDS011;53698;52.738;4.752;2022-07-09T12:41:46;6.68;;;1.20;;
66794;SDS011;53698;52.738;4.752;2022-07-09T12:44:11;5.82;;;1.52;;
66794;SDS011;53698;52.738;4.752;2022-07-09T12:46:36;9.98;;;1.40;;
66794;SDS011;53698;52.738;4.752;2022-07-09T12:49:02;8.63;;;1.40;;
66794;SDS011;53698;52.738;4.752;2022-07-09T12:51:27;5.28;;;1.60;;
66794;SDS011;53698;52.738;4.752;2022-07-09T12:53:53;6.60;;;1.35;;
66794;SDS011;53698;52.738;4.752;2022-07-09T12:56:18;5.65;;;1.52;;
66794;SDS011;53698;52.738;4.752;2022-07-09T12:58:44;8.50;;;1.48;;
66794;SDS011;53698;52.738;4.752;2022-07-09T13:01:09;7.07;;;1.50;;
66794;SDS011;53698;52.738;4.752;2022-07-09T13:03:34;3.50;;;1.10;;
66794;SDS011;53698;52.738;4.752;2022-07-09T13:06:00;6.43;;;1.20;;
66794;SDS011;53698;52.738;4.752;2022-07-09T13:08:26;9.63;;;1.58;;
66794;SDS011;53698;52.738;4.752;2022-07-09T13:10:51;10.20;;;1.40;;
66794;SDS011;53698;52.738;4.752;2022-07-09T13:13:17;7.07;;;1.55;;
66794;SDS011;53698;52.738;4.752;2022-07-09T13:15:42;13.65;;;2.00;;
66794;SDS011;53698;52.738;4.752;2022-07-09T13:18:08;9.55;;;1.70;;
66794;SDS011;53698;52.738;4.752;2022-07-09T13:20:33;4.95;;;1.40;;
66794;SDS011;53698;52.738;4.752;2022-07-09T13:22:59;8.65;;;1.35;;
66794;SDS011;53698;52.738;4.752;2022-07-09T13:25:24;6.00;;;1.27;;
66794;SDS011;53698;52.738;4.752;2022-07-09T13:27:49;6.55;;;1.60;;
66794;SDS011;53698;52.738;4.752;2022-07-09T13:30:15;6.13;;;1.42;;
66794;SDS011;53698;52.738;4.752;2022-07-09T13:32:46;4.72;;;0.95;;
66794;SDS011;53698;52.738;4.752;2022-07-09T13:35:15;9.80;;;1.42;;
66794;SDS011;53698;52.738;4.752;2022-07-09T13:37:40;8.15;;;1.38;;
66794;SDS011;53698;52.738;4.752;2022-07-09T13:40:06;8.93;;;1.20;;
66794;SDS011;53698;52.738;4.752;2022-07-09T13:42:32;2.03;;;1.17;;
66794;SDS011;53698;52.738;4.752;2022-07-09T13:44:57;8.15;;;1.33;;
66794;SDS011;53698;52.738;4.752;2022-07-09T13:47:23;8.98;;;1.85;;
66794;SDS011;53698;52.738;4.752;2022-07-09T13:49:48;8.88;;;1.65;;
66794;SDS011;53698;52.738;4.752;2022-07-09T13:52:13;5.43;;;1.08;;
66794;SDS011;53698;52.738;4.752;2022-07-09T13:54:39;6.65;;;1.63;;
66794;SDS011;53698;52.738;4.752;2022-07-09T13:57:04;5.40;;;1.85;;
66794;SDS011;53698;52.738;4.752;2022-07-09T13:59:30;6.72;;;1.58;;
66794;SDS011;53698;52.738;4.752;2022-07-09T14:01:55;7.03;;;1.90;;
66794;SDS011;53698;52.738;4.752;2022-07-09T14:04:21;4.30;;;1.15;;
66794;SDS011;53698;52.738;4.752;2022-07-09T14:06:51;5.60;;;1.67;;
66794;SDS011;53698;52.738;4.752;2022-07-09T14:09:16;9.73;;;1.92;;
66794;SDS011;53698;52.738;4.752;2022-07-09T14:11:42;8.82;;;1.33;;
66794;SDS011;53698;52.738;4.752;2022-07-09T14:14:07;5.68;;;1.48;;
66794;SDS011;53698;52.738;4.752;2022-07-09T14:16:33;6.18;;;1.27;;
66794;SDS011;53698;52.738;4.752;2022-07-09T14:18:59;5.35;;;1.40;;
66794;SDS011;53698;52.738;4.752;2022-07-09T14:21:24;10.65;;;1.70;;
66794;SDS011;53698;52.738;4.752;2022-07-09T14:23:50;5.90;;;1.67;;
66794;SDS011;53698;52.738;4.752;2022-07-09T14:26:15;3.65;;;1.20;;
66794;SDS011;53698;52.738;4.752;2022-07-09T14:28:41;9.52;;;1.40;;
66794;SDS011;53698;52.738;4.752;2022-07-09T14:31:06;10.15;;;1.48;;
66794;SDS011;53698;52.738;4.752;2022-07-09T14:33:32;3.70;;;1.23;;
66794;SDS011;53698;52.738;4.752;2022-07-09T14:35:57;6.57;;;1.50;;
66794;SDS011;53698;52.738;4.752;2022-07-09T14:38:23;7.80;;;1.50;;
66794;SDS011;53698;52.738;4.752;2022-07-09T14:40:48;6.25;;;1.35;;
66794;SDS011;53698;52.738;4.752;2022-07-09T14:43:15;7.32;;;1.73;;
66794;SDS011;53698;52.738;4.752;2022-07-09T14:45:40;5.78;;;0.90;;